createdAt,value
2022-10-22T00:01:12.104Z,99.90
2022-10-22T00:03:40.415Z,99.90
2022-10-22T00:06:08.875Z,99.90
2022-10-22T00:08:37.018Z,99.90
2022-10-22T00:11:17.013Z,99.90
2022-10-22T00:16:18.928Z,99.90
2022-10-22T00:18:47.061Z,99.90
2022-10-22T00:21:15.243Z,99.90
2022-10-22T00:23:43.801Z,99.90
2022-10-22T00:26:12.972Z,99.90
2022-10-22T00:28:41.462Z,99.90
2022-10-22T00:31:09.734Z,99.90
2022-10-22T00:33:37.631Z,99.90
2022-10-22T00:36:06.212Z,99.90
2022-10-22T00:38:35.228Z,99.90
2022-10-22T00:41:03.343Z,99.70
2022-10-22T00:43:33.897Z,99.40
2022-10-22T00:46:01.965Z,99.20
2022-10-22T00:48:33.725Z,99.20
2022-10-22T00:51:08.793Z,98.90
2022-10-22T00:53:49.551Z,98.70
2022-10-22T00:56:18.775Z,98.60
2022-10-22T00:58:51.656Z,98.60
2022-10-22T01:01:25.095Z,98.50
2022-10-22T01:03:54.110Z,98.40
2022-10-22T01:06:45.073Z,98.20
2022-10-22T01:09:21.091Z,98.30
2022-10-22T01:12:12.991Z,98.30
2022-10-22T01:14:47.191Z,98.20
2022-10-22T01:17:35.436Z,98.20
2022-10-22T01:20:38.396Z,98.30
2022-10-22T01:23:33.959Z,97.70
2022-10-22T01:26:44.762Z,97.80
2022-10-22T01:29:19.603Z,97.90
2022-10-22T01:32:15.440Z,97.90
2022-10-22T01:34:49.276Z,98.00
2022-10-22T01:37:20.495Z,98.00
2022-10-22T01:39:50.234Z,98.00
2022-10-22T01:42:18.207Z,98.00
2022-10-22T01:44:49.282Z,97.90
2022-10-22T01:47:28.140Z,97.90
2022-10-22T01:50:20.625Z,97.80
2022-10-22T01:53:18.927Z,97.60
2022-10-22T01:56:10.730Z,97.70
2022-10-22T01:58:53.892Z,97.70
2022-10-22T02:01:31.674Z,97.60
2022-10-22T02:04:05.942Z,97.60
2022-10-22T02:06:35.782Z,97.50
2022-10-22T02:09:05.581Z,97.50
2022-10-22T02:11:33.822Z,97.40
2022-10-22T02:14:05.162Z,97.30
2022-10-22T02:16:38.836Z,97.30
2022-10-22T02:19:17.412Z,97.20
2022-10-22T02:21:46.276Z,97.40
2022-10-22T02:24:14.523Z,97.60
2022-10-22T02:27:07.140Z,97.60
2022-10-22T02:29:44.273Z,97.40
2022-10-22T02:32:17.266Z,97.60
2022-10-22T02:34:46.842Z,97.50
2022-10-22T02:37:15.666Z,97.30
2022-10-22T02:39:44.933Z,97.10
2022-10-22T02:42:13.724Z,97.00
2022-10-22T02:44:44.780Z,96.90
2022-10-22T02:47:12.712Z,96.80
2022-10-22T02:49:40.569Z,96.80
2022-10-22T02:52:08.764Z,96.80
2022-10-22T02:54:36.715Z,96.70
2022-10-22T02:57:04.784Z,96.70
2022-10-22T02:59:32.951Z,96.70
2022-10-22T03:02:01.309Z,96.80
2022-10-22T03:04:29.326Z,96.80
2022-10-22T03:06:57.703Z,97.00
2022-10-22T03:09:25.681Z,97.20
2022-10-22T03:11:53.957Z,97.20
2022-10-22T03:14:22.356Z,97.40
2022-10-22T03:16:50.346Z,97.50
2022-10-22T03:19:18.352Z,97.40
2022-10-22T03:21:57.626Z,97.40
2022-10-22T03:24:39.210Z,97.30
2022-10-22T03:27:07.239Z,97.30
2022-10-22T03:29:38.145Z,97.30
2022-10-22T03:32:06.351Z,97.20
2022-10-22T03:34:34.562Z,97.20
2022-10-22T03:37:03.511Z,97.10
2022-10-22T03:39:35.003Z,97.00
2022-10-22T03:42:04.434Z,96.90
2022-10-22T03:44:33.272Z,96.80
2022-10-22T03:47:02.712Z,96.70
2022-10-22T03:49:31.052Z,96.60
2022-10-22T03:51:59.040Z,96.60
2022-10-22T03:54:27.101Z,96.60
2022-10-22T03:56:55.650Z,96.60
2022-10-22T03:59:23.742Z,96.50
2022-10-22T04:01:51.840Z,96.50
2022-10-22T04:04:19.944Z,96.40
2022-10-22T04:06:48.800Z,96.40
2022-10-22T04:09:16.924Z,96.40
2022-10-22T04:11:45.161Z,96.30
2022-10-22T04:14:13.338Z,96.30
2022-10-22T04:16:42.561Z,96.20
2022-10-22T04:19:10.833Z,96.20
2022-10-22T04:21:38.752Z,96.20
2022-10-22T04:24:06.882Z,96.10
2022-10-22T04:26:34.850Z,96.20
2022-10-22T04:29:03.515Z,96.40
2022-10-22T04:31:34.045Z,96.60
2022-10-22T04:34:02.695Z,96.60
2022-10-22T04:36:30.947Z,96.60
2022-10-22T04:39:01.232Z,96.60
2022-10-22T04:41:32.196Z,96.80
2022-10-22T04:44:00.867Z,96.90
2022-10-22T04:46:31.709Z,96.90
2022-10-22T04:48:59.774Z,97.00
2022-10-22T04:51:29.171Z,97.10
2022-10-22T04:53:57.841Z,97.20
2022-10-22T04:56:29.407Z,97.40
2022-10-22T04:59:03.058Z,97.00
2022-10-22T05:01:40.164Z,97.00
2022-10-22T05:04:17.214Z,96.80
2022-10-22T05:06:46.029Z,96.90
2022-10-22T05:09:19.896Z,97.00
2022-10-22T05:11:50.321Z,97.10
2022-10-22T05:14:21.632Z,97.20
2022-10-22T05:16:51.235Z,97.20
2022-10-22T05:19:24.398Z,97.10
2022-10-22T05:21:54.102Z,97.10
2022-10-22T05:24:23.169Z,97.10
2022-10-22T05:26:52.906Z,97.00
2022-10-22T05:29:21.670Z,97.00
2022-10-22T05:31:49.850Z,97.00
2022-10-22T05:34:18.369Z,96.90
2022-10-22T05:36:46.663Z,96.70
2022-10-22T05:39:14.857Z,96.50
2022-10-22T05:41:42.823Z,96.40
2022-10-22T05:44:12.815Z,96.40
2022-10-22T05:46:41.546Z,96.20
2022-10-22T05:49:12.973Z,96.10
2022-10-22T05:51:42.357Z,96.00
2022-10-22T05:54:20.097Z,95.70
2022-10-22T05:56:48.347Z,95.50
2022-10-22T05:59:16.243Z,95.30
2022-10-22T06:01:44.911Z,95.10
2022-10-22T06:04:14.252Z,94.90
2022-10-22T06:06:46.477Z,94.60
2022-10-22T06:09:23.206Z,94.30
2022-10-22T06:11:51.517Z,93.80
2022-10-22T06:14:20.765Z,93.50
2022-10-22T06:16:50.634Z,93.30
2022-10-22T06:19:21.749Z,93.10
2022-10-22T06:21:49.995Z,92.80
2022-10-22T06:24:18.234Z,92.80
2022-10-22T06:26:46.406Z,92.60
2022-10-22T06:29:14.295Z,92.30
2022-10-22T06:31:42.403Z,92.30
2022-10-22T06:34:15.069Z,92.10
2022-10-22T06:36:45.838Z,92.00
2022-10-22T06:39:16.059Z,92.10
2022-10-22T06:41:44.370Z,91.70
2022-10-22T06:44:17.588Z,91.50
2022-10-22T06:46:45.664Z,91.30
2022-10-22T06:49:15.919Z,91.20
2022-10-22T06:51:44.483Z,91.20
2022-10-22T06:54:12.744Z,91.10
2022-10-22T06:56:41.010Z,91.00
2022-10-22T06:59:09.208Z,90.70
2022-10-22T07:01:37.462Z,90.30
2022-10-22T07:04:06.475Z,90.00
2022-10-22T07:06:34.452Z,89.10
2022-10-22T07:09:02.620Z,88.20
2022-10-22T07:11:39.107Z,87.40
2022-10-22T07:14:07.271Z,87.20
2022-10-22T07:16:35.591Z,87.30
2022-10-22T07:19:04.737Z,86.80
2022-10-22T07:21:32.971Z,86.40
2022-10-22T07:24:01.275Z,86.50
2022-10-22T07:26:31.316Z,86.90
2022-10-22T07:29:02.448Z,85.80
2022-10-22T07:31:30.952Z,85.60
2022-10-22T07:33:59.095Z,84.10
2022-10-22T07:36:27.503Z,83.20
2022-10-22T07:38:58.405Z,83.20
2022-10-22T07:41:28.572Z,81.60
2022-10-22T07:43:57.531Z,81.00
2022-10-22T07:46:26.748Z,81.00
2022-10-22T07:48:54.701Z,81.50
2022-10-22T07:51:23.413Z,81.40
2022-10-22T07:53:51.538Z,82.00
2022-10-22T07:56:19.254Z,81.30
2022-10-22T07:58:50.234Z,81.00
2022-10-22T08:01:18.525Z,80.50
2022-10-22T08:03:46.485Z,80.10
2022-10-22T08:06:15.511Z,79.10
2022-10-22T08:08:44.281Z,78.70
2022-10-22T08:11:12.696Z,78.10
2022-10-22T08:13:44.865Z,76.50
2022-10-22T08:16:13.749Z,76.20
2022-10-22T08:18:41.726Z,75.70
2022-10-22T08:21:10.105Z,75.30
2022-10-22T08:23:38.271Z,75.20
2022-10-22T08:26:06.652Z,72.40
2022-10-22T08:28:37.737Z,73.20
2022-10-22T08:31:08.274Z,72.00
2022-10-22T08:33:36.309Z,69.30
2022-10-22T08:36:04.280Z,70.50
2022-10-22T08:38:32.510Z,68.20
2022-10-22T08:41:13.884Z,66.50
2022-10-22T08:43:53.671Z,67.90
2022-10-22T08:46:52.840Z,68.40
2022-10-22T08:49:28.955Z,68.10
2022-10-22T08:51:59.191Z,66.70
2022-10-22T08:54:46.803Z,66.30
2022-10-22T08:57:39.786Z,66.60
2022-10-22T09:00:12.738Z,66.40
2022-10-22T09:02:52.855Z,65.00
2022-10-22T09:05:59.631Z,62.90
2022-10-22T09:08:28.911Z,61.70
2022-10-22T09:11:07.046Z,62.60
2022-10-22T09:13:34.951Z,61.80
2022-10-22T09:16:15.237Z,61.20
2022-10-22T09:18:48.747Z,61.50
2022-10-22T09:21:59.838Z,62.10
2022-10-22T09:24:42.475Z,59.90
2022-10-22T09:27:17.578Z,58.40
2022-10-22T09:29:47.923Z,59.70
2022-10-22T09:32:20.049Z,58.50
2022-10-22T09:34:49.246Z,59.30
2022-10-22T09:37:19.876Z,59.00
2022-10-22T09:39:52.707Z,58.80
2022-10-22T09:42:21.727Z,57.00
2022-10-22T09:45:00.320Z,56.50
2022-10-22T09:48:01.075Z,57.80
2022-10-22T09:50:55.881Z,55.60
2022-10-22T09:53:29.751Z,56.90
2022-10-22T09:56:07.476Z,57.70
2022-10-22T09:58:49.916Z,57.40
2022-10-22T10:01:34.766Z,55.00
2022-10-22T10:04:14.707Z,54.30
2022-10-22T10:06:45.432Z,54.30
2022-10-22T10:09:26.071Z,53.60
2022-10-22T10:11:56.891Z,55.00
2022-10-22T10:14:59.023Z,52.90
2022-10-22T10:17:54.061Z,52.30
2022-10-22T10:20:41.569Z,51.30
2022-10-22T10:23:29.653Z,50.50
2022-10-22T10:26:26.617Z,51.30
2022-10-22T10:33:00.077Z,47.90
2022-10-22T10:35:46.452Z,48.30
2022-10-22T10:38:17.148Z,48.70
2022-10-22T10:41:05.132Z,49.10
2022-10-22T10:43:59.266Z,49.80
2022-10-22T10:46:51.585Z,49.30
2022-10-22T10:49:25.234Z,49.50
2022-10-22T10:52:05.781Z,49.10
2022-10-22T10:54:54.493Z,49.30
2022-10-22T10:57:55.309Z,47.30
2022-10-22T11:00:24.514Z,45.00
2022-10-22T11:03:04.018Z,44.80
2022-10-22T11:05:45.569Z,45.60
2022-10-22T11:08:30.525Z,46.30
2022-10-22T11:11:08.109Z,45.40
2022-10-22T11:13:53.960Z,45.00
2022-10-22T11:16:41.120Z,45.90
2022-10-22T11:19:49.735Z,44.90
2022-10-22T11:22:32.497Z,44.80
2022-10-22T11:25:14.661Z,46.20
2022-10-22T11:27:51.982Z,46.40
2022-10-22T11:30:25.353Z,45.80
2022-10-22T11:33:00.962Z,45.20
2022-10-22T11:35:34.424Z,43.00
2022-10-22T11:38:05.552Z,42.20
2022-10-22T11:40:45.961Z,42.20
2022-10-22T11:43:33.646Z,42.50
2022-10-22T11:46:16.845Z,41.20
2022-10-22T11:48:45.271Z,41.20
2022-10-22T11:51:36.173Z,41.40
2022-10-22T11:54:29.811Z,41.00
2022-10-22T11:57:15.992Z,41.00
2022-10-22T11:59:52.995Z,41.20
2022-10-22T12:02:29.682Z,40.20
2022-10-22T12:05:19.868Z,39.30
2022-10-22T12:08:21.723Z,37.80
2022-10-22T12:10:57.474Z,38.30
2022-10-22T12:13:29.756Z,39.90
2022-10-22T12:16:02.316Z,40.30
2022-10-22T12:18:42.517Z,40.10
2022-10-22T12:21:16.212Z,40.20
2022-10-22T12:23:46.896Z,40.70
2022-10-22T12:29:06.967Z,39.30
2022-10-22T12:31:40.637Z,39.30
2022-10-22T12:34:13.613Z,40.40
2022-10-22T12:36:41.946Z,38.80
2022-10-22T12:39:17.785Z,37.70
2022-10-22T12:41:46.090Z,36.80
2022-10-22T12:44:17.228Z,37.60
2022-10-22T12:46:51.707Z,37.60
2022-10-22T12:49:33.483Z,38.20
2022-10-22T12:52:07.737Z,39.00
2022-10-22T12:54:38.753Z,39.20
2022-10-22T12:57:07.259Z,38.10
2022-10-22T12:59:38.628Z,38.40
2022-10-22T13:02:28.376Z,38.80
2022-10-22T13:05:34.464Z,38.60
2022-10-22T13:08:17.411Z,37.10
2022-10-22T13:10:53.712Z,36.80
2022-10-22T13:13:41.208Z,37.60
2022-10-22T13:16:40.659Z,36.10
2022-10-22T13:19:39.161Z,36.70
2022-10-22T13:22:48.634Z,36.20
2022-10-22T13:25:16.662Z,36.90
2022-10-22T13:27:49.533Z,37.60
2022-10-22T13:30:26.918Z,37.10
2022-10-22T13:33:23.356Z,36.30
2022-10-22T13:35:51.432Z,36.60
2022-10-22T13:38:21.524Z,36.60
2022-10-22T13:40:50.014Z,37.10
2022-10-22T13:43:18.809Z,38.40
2022-10-22T13:45:54.867Z,38.80
2022-10-22T13:48:24.734Z,39.70
2022-10-22T13:50:54.441Z,40.50
2022-10-22T13:53:28.530Z,42.60
2022-10-22T13:55:56.899Z,44.50
2022-10-22T13:58:25.291Z,46.20
2022-10-22T14:01:09.092Z,47.30
2022-10-22T14:03:38.777Z,48.70
2022-10-22T14:06:14.034Z,48.50
2022-10-22T14:08:43.213Z,49.10
2022-10-22T14:11:12.993Z,49.70
2022-10-22T14:13:41.222Z,49.30
2022-10-22T14:16:25.022Z,49.60
2022-10-22T14:18:53.811Z,50.60
2022-10-22T14:21:22.232Z,51.10
2022-10-22T14:23:52.405Z,50.90
2022-10-22T14:26:31.797Z,50.50
2022-10-22T14:29:09.241Z,51.00
2022-10-22T14:31:44.420Z,51.30
2022-10-22T14:34:17.296Z,50.40
2022-10-22T14:36:45.351Z,50.60
2022-10-22T14:39:14.654Z,50.70
2022-10-22T14:41:43.422Z,50.00
2022-10-22T14:44:14.650Z,49.30
2022-10-22T14:46:44.678Z,48.70
2022-10-22T14:49:13.315Z,48.30
2022-10-22T14:51:42.885Z,48.20
2022-10-22T14:54:10.925Z,48.80
2022-10-22T14:56:39.352Z,48.10
2022-10-22T14:59:07.206Z,55.00
2022-10-22T15:01:35.565Z,53.90
2022-10-22T15:04:03.763Z,52.10
2022-10-22T15:06:32.375Z,51.20
2022-10-22T15:09:00.398Z,49.40
2022-10-22T15:11:28.933Z,48.70
2022-10-22T15:13:56.815Z,48.60
2022-10-22T15:16:24.834Z,48.50
2022-10-22T15:18:53.677Z,48.30
2022-10-22T15:21:24.162Z,48.70
2022-10-22T15:23:52.572Z,49.00
2022-10-22T15:26:20.635Z,49.10
2022-10-22T15:28:48.609Z,49.70
2022-10-22T15:31:17.114Z,50.20
2022-10-22T15:33:45.210Z,50.90
2022-10-22T15:36:16.111Z,51.50
2022-10-22T15:38:44.319Z,51.50
2022-10-22T15:41:13.814Z,52.50
2022-10-22T15:43:41.754Z,53.60
2022-10-22T15:46:15.865Z,54.50
2022-10-22T15:48:45.864Z,56.10
2022-10-22T15:51:17.019Z,58.30
2022-10-22T15:53:50.843Z,60.40
2022-10-22T15:56:18.860Z,62.60
2022-10-22T15:58:46.870Z,64.70
2022-10-22T16:01:15.495Z,66.80
2022-10-22T16:03:43.386Z,67.40
2022-10-22T16:06:11.733Z,68.90
2022-10-22T16:08:39.946Z,69.90
2022-10-22T16:11:07.757Z,71.70
2022-10-22T16:13:37.908Z,72.80
2022-10-22T16:16:08.373Z,73.80
2022-10-22T16:18:36.535Z,74.30
2022-10-22T16:21:04.745Z,75.00
2022-10-22T16:23:32.704Z,75.50
2022-10-22T16:26:03.039Z,75.80
2022-10-22T16:28:31.326Z,76.60
2022-10-22T16:31:06.291Z,77.30
2022-10-22T16:33:41.508Z,77.90
2022-10-22T16:36:18.337Z,76.60
2022-10-22T16:38:47.225Z,76.60
2022-10-22T16:41:23.731Z,76.90
2022-10-22T16:43:55.309Z,75.80
2022-10-22T16:46:23.687Z,76.50
2022-10-22T16:48:53.438Z,76.90
2022-10-22T16:51:24.724Z,77.70
2022-10-22T16:53:53.415Z,79.40
2022-10-22T16:56:21.660Z,80.40
2022-10-22T16:58:51.597Z,81.40
2022-10-22T17:01:21.443Z,82.00
2022-10-22T17:03:49.446Z,83.80
2022-10-22T17:06:17.459Z,84.50
2022-10-22T17:08:48.274Z,86.30
2022-10-22T17:11:20.097Z,87.60
2022-10-22T17:13:49.954Z,88.50
2022-10-22T17:16:20.911Z,89.10
2022-10-22T17:18:49.242Z,90.00
2022-10-22T17:21:18.380Z,90.40
2022-10-22T17:23:47.496Z,91.00
2022-10-22T17:26:26.972Z,91.20
2022-10-22T17:28:55.722Z,91.50
2022-10-22T17:31:33.223Z,91.90
2022-10-22T17:34:01.680Z,92.10
2022-10-22T17:36:33.431Z,92.40
2022-10-22T17:39:07.009Z,92.70
2022-10-22T17:41:36.963Z,93.10
2022-10-22T17:44:09.397Z,93.20
2022-10-22T17:46:38.549Z,93.60
2022-10-22T17:49:13.183Z,93.80
2022-10-22T17:51:41.772Z,94.30
2022-10-22T17:54:10.344Z,94.30
2022-10-22T17:56:40.513Z,94.40
2022-10-22T17:59:10.352Z,94.60
2022-10-22T18:01:43.756Z,94.80
2022-10-22T18:04:15.308Z,95.50
2022-10-22T18:06:43.253Z,95.80
2022-10-22T18:09:17.357Z,96.30
2022-10-22T18:11:47.836Z,96.70
2022-10-22T18:14:17.299Z,96.90
2022-10-22T18:16:45.637Z,97.00
2022-10-22T18:19:17.999Z,97.00
2022-10-22T18:21:46.288Z,97.00
2022-10-22T18:24:15.768Z,97.00
2022-10-22T18:26:44.486Z,97.00
2022-10-22T18:29:17.316Z,97.00
2022-10-22T18:31:45.483Z,96.80
2022-10-22T18:34:13.413Z,96.80
2022-10-22T18:36:42.110Z,96.80
2022-10-22T18:39:15.294Z,96.90
2022-10-22T18:41:43.852Z,97.00
2022-10-22T18:44:14.746Z,97.10
2022-10-22T18:46:42.692Z,97.20
2022-10-22T18:49:18.479Z,97.30
2022-10-22T18:51:49.138Z,97.40
2022-10-22T18:54:24.945Z,97.40
2022-10-22T18:56:56.270Z,97.50
2022-10-22T18:59:27.181Z,97.50
2022-10-22T19:01:59.266Z,97.50
2022-10-22T19:04:33.568Z,97.50
2022-10-22T19:07:01.561Z,97.40
2022-10-22T19:09:29.592Z,97.40
2022-10-22T19:11:57.540Z,97.40
2022-10-22T19:14:25.750Z,97.60
2022-10-22T19:16:54.302Z,97.70
2022-10-22T19:19:23.134Z,97.70
2022-10-22T19:21:51.739Z,97.80
2022-10-22T19:24:21.248Z,97.90
2022-10-22T19:26:50.318Z,98.00
2022-10-22T19:29:21.204Z,98.10
2022-10-22T19:31:51.382Z,98.20
2022-10-22T19:34:22.580Z,98.30
2022-10-22T19:36:52.114Z,98.50
2022-10-22T19:39:20.515Z,98.60
2022-10-22T19:41:48.592Z,98.70
2022-10-22T19:44:16.720Z,98.80
2022-10-22T19:46:44.655Z,98.80
2022-10-22T19:49:12.546Z,98.80
2022-10-22T19:51:40.546Z,98.70
2022-10-22T19:54:12.566Z,98.70
2022-10-22T19:56:41.627Z,98.60
2022-10-22T19:59:09.543Z,98.60
2022-10-22T20:01:38.354Z,98.60
2022-10-22T20:04:06.469Z,98.60
2022-10-22T20:06:34.507Z,98.60
2022-10-22T20:09:02.669Z,98.60
2022-10-22T20:11:30.964Z,98.50
2022-10-22T20:14:01.073Z,98.60
2022-10-22T20:16:30.302Z,98.60
2022-10-22T20:19:04.125Z,98.70
2022-10-22T20:21:32.655Z,98.70
2022-10-22T20:24:00.924Z,98.90
2022-10-22T20:26:29.458Z,98.90
2022-10-22T20:28:58.375Z,99.00
2022-10-22T20:31:29.867Z,99.00
2022-10-22T20:33:59.484Z,99.10
2022-10-22T20:36:29.194Z,98.90
2022-10-22T20:39:02.419Z,99.10
2022-10-22T20:41:30.708Z,99.00
2022-10-22T20:43:58.553Z,99.00
2022-10-22T20:46:29.874Z,99.00
2022-10-22T20:49:01.954Z,99.10
2022-10-22T20:51:30.633Z,99.10
2022-10-22T20:53:58.869Z,99.20
2022-10-22T20:56:27.752Z,99.20
2022-10-22T20:59:05.304Z,99.20
2022-10-22T21:01:39.512Z,99.10
2022-10-22T21:04:07.992Z,99.00
2022-10-22T21:06:38.621Z,99.00
2022-10-22T21:09:08.191Z,98.80
2022-10-22T21:11:37.406Z,98.70
2022-10-22T21:14:07.014Z,98.40
2022-10-22T21:16:35.096Z,98.30
2022-10-22T21:19:03.274Z,98.10
2022-10-22T21:21:31.166Z,98.10
2022-10-22T21:23:59.079Z,98.00
2022-10-22T21:26:27.298Z,97.90
2022-10-22T21:28:54.964Z,97.80
2022-10-22T21:31:24.594Z,97.70
2022-10-22T21:33:53.583Z,97.70
2022-10-22T21:36:23.475Z,97.60
2022-10-22T21:38:52.576Z,97.60
2022-10-22T21:41:23.075Z,97.60
2022-10-22T21:43:51.358Z,97.60
2022-10-22T21:46:24.599Z,97.70
2022-10-22T21:49:03.947Z,97.70
2022-10-22T21:51:33.983Z,97.80
2022-10-22T21:54:02.427Z,97.90
2022-10-22T21:56:35.458Z,97.80
2022-10-22T21:59:05.553Z,97.80
2022-10-22T22:01:33.475Z,97.60
2022-10-22T22:04:01.802Z,97.20
2022-10-22T22:06:33.123Z,97.00
2022-10-22T22:09:03.655Z,97.00
2022-10-22T22:11:31.908Z,97.00
2022-10-22T22:14:00.332Z,96.90
2022-10-22T22:16:33.241Z,96.70
2022-10-22T22:21:40.653Z,96.50
2022-10-22T22:24:11.336Z,96.40
2022-10-22T22:26:40.793Z,96.40
2022-10-22T22:29:08.661Z,96.30
2022-10-22T22:31:37.837Z,96.20
2022-10-22T22:34:09.250Z,96.00
2022-10-22T22:36:42.090Z,95.80
2022-10-22T22:39:14.055Z,95.70
2022-10-22T22:41:42.941Z,95.70
2022-10-22T22:44:11.370Z,96.00
2022-10-22T22:46:39.639Z,95.90
2022-10-22T22:49:08.517Z,96.10
2022-10-22T22:51:36.797Z,96.20
2022-10-22T22:54:04.697Z,96.50
2022-10-22T22:56:34.987Z,96.90
2022-10-22T22:59:05.021Z,97.10
2022-10-22T23:01:37.955Z,96.80
2022-10-22T23:04:11.136Z,96.70
2022-10-22T23:06:39.143Z,96.60
2022-10-22T23:09:10.056Z,96.40
2022-10-22T23:11:39.144Z,96.20
2022-10-22T23:14:08.716Z,96.00
2022-10-22T23:16:40.338Z,95.80
2022-10-22T23:19:08.737Z,95.70
2022-10-22T23:21:39.785Z,95.60
2022-10-22T23:24:11.531Z,95.50
2022-10-22T23:26:42.434Z,95.50
2022-10-22T23:29:22.163Z,95.50
2022-10-22T23:31:51.475Z,95.60
2022-10-22T23:34:22.161Z,95.70
2022-10-22T23:36:50.929Z,95.80
2022-10-22T23:39:23.287Z,95.80
2022-10-22T23:41:51.948Z,95.60
2022-10-22T23:44:20.296Z,95.90
2022-10-22T23:46:48.460Z,96.00
2022-10-22T23:49:17.578Z,96.30
2022-10-22T23:51:45.548Z,96.50
2022-10-22T23:54:15.938Z,96.30
2022-10-22T23:56:43.898Z,96.10
